createdAt,value
2019-04-01T14:17:37.706Z,18.30
2019-04-01T14:20:09.858Z,16.97
2019-04-01T14:22:40.046Z,17.30
2019-04-01T14:25:14.111Z,20.17
2019-04-01T14:27:46.847Z,19.37
2019-04-01T14:30:26.982Z,21.10
2019-04-01T14:33:02.946Z,15.63
2019-04-01T14:35:36.454Z,17.30
2019-04-01T14:38:17.983Z,18.65
2019-04-01T14:40:46.780Z,19.47
2019-04-01T14:43:16.273Z,19.00
2019-04-01T14:46:35.569Z,18.37
2019-04-01T14:49:07.476Z,19.03
2019-04-01T14:51:38.557Z,14.90
2019-04-01T14:54:08.592Z,14.73
2019-04-01T14:56:38.249Z,19.20
2019-04-01T14:59:08.937Z,16.80
2019-04-01T15:01:38.560Z,17.27
2019-04-01T15:04:08.180Z,17.57
2019-04-01T15:06:42.225Z,15.23
2019-04-01T15:09:12.420Z,16.03
2019-04-01T15:11:42.315Z,15.63
2019-04-01T15:14:11.968Z,16.07
2019-04-01T15:16:42.636Z,14.27
2019-04-01T15:19:13.034Z,12.83
2019-04-01T15:21:43.304Z,13.80
2019-04-01T15:24:12.950Z,17.00
2019-04-01T15:26:42.565Z,11.73
2019-04-01T15:29:12.186Z,13.77
2019-04-01T15:31:43.233Z,15.37
2019-04-01T15:34:12.909Z,15.10
2019-04-01T15:36:42.488Z,13.33
2019-04-01T15:39:13.810Z,13.30
2019-04-01T15:41:45.217Z,14.43
2019-04-01T15:44:14.789Z,16.00
2019-04-01T15:46:44.442Z,16.63
2019-04-01T15:49:14.108Z,13.43
2019-04-01T15:51:43.692Z,15.03
2019-04-01T15:54:13.366Z,14.63
2019-04-01T15:56:42.979Z,15.03
2019-04-01T15:59:12.564Z,16.50
2019-04-01T16:01:42.188Z,16.30
2019-04-01T16:04:11.773Z,14.57
2019-04-01T16:06:41.398Z,14.60
2019-04-01T16:09:11.217Z,14.40
2019-04-01T16:11:40.846Z,14.50
2019-04-01T16:14:11.284Z,14.40
2019-04-01T16:16:41.323Z,14.90
2019-04-01T16:19:10.972Z,18.00
2019-04-01T16:21:40.576Z,15.60
2019-04-01T16:24:11.165Z,15.90
2019-04-01T16:26:41.349Z,18.43
2019-04-01T16:29:10.968Z,18.77
2019-04-01T16:31:40.564Z,16.93
2019-04-01T16:34:10.151Z,14.97
2019-04-01T16:36:41.105Z,16.13
2019-04-01T16:39:10.761Z,15.80
2019-04-01T16:41:40.657Z,17.47
2019-04-01T16:44:10.312Z,17.93
2019-04-01T16:46:40.946Z,17.70
2019-04-01T16:49:10.965Z,17.83
2019-04-01T16:51:41.431Z,14.53
2019-04-01T16:54:11.345Z,18.27
2019-04-01T16:56:40.962Z,17.77
2019-04-01T16:59:10.540Z,14.33
2019-04-01T17:01:41.625Z,16.00
2019-04-01T17:04:11.440Z,15.23
2019-04-01T17:06:41.067Z,13.67
2019-04-01T17:09:10.860Z,15.27
2019-04-01T17:11:40.441Z,11.83
2019-04-01T17:14:10.084Z,14.70
2019-04-01T17:16:39.653Z,13.50
2019-04-01T17:19:09.313Z,13.07
2019-04-01T17:21:38.924Z,12.83
2019-04-01T17:24:08.984Z,14.37
2019-04-01T17:26:56.953Z,11.30
2019-04-01T17:29:26.563Z,13.80
2019-04-01T17:31:56.228Z,15.07
2019-04-01T17:34:25.804Z,12.23
2019-04-01T17:36:55.497Z,14.60
2019-04-01T17:39:25.083Z,12.97
2019-04-01T17:41:54.739Z,12.87
2019-04-01T17:44:24.373Z,11.10
2019-04-01T17:46:53.953Z,12.43
2019-04-01T17:49:23.653Z,10.77
2019-04-01T17:51:54.071Z,12.57
2019-04-01T17:54:24.361Z,10.17
2019-04-01T17:56:53.977Z,11.53
2019-04-01T17:59:23.557Z,11.77
2019-04-01T18:01:53.167Z,12.33
2019-04-01T18:04:22.756Z,10.37
2019-04-01T18:06:52.373Z,14.53
2019-04-01T18:09:22.032Z,11.20
2019-04-01T18:11:51.613Z,11.23
2019-04-01T18:14:21.225Z,12.70
2019-04-01T18:16:50.816Z,11.70
2019-04-01T18:19:20.432Z,11.53
2019-04-01T18:21:50.030Z,9.80
2019-04-01T18:24:19.634Z,11.73
2019-04-01T18:26:49.216Z,12.47
2019-04-01T18:29:18.841Z,13.50
2019-04-01T18:31:48.443Z,16.07
2019-04-01T18:34:18.032Z,12.80
2019-04-01T18:36:47.733Z,12.13
2019-04-01T18:39:17.357Z,10.87
2019-04-01T18:41:46.934Z,12.77
2019-04-01T18:44:18.582Z,12.87
2019-04-01T18:46:47.825Z,10.60
2019-04-01T18:49:17.608Z,12.60
2019-04-01T18:51:47.313Z,14.17
2019-04-01T18:54:16.930Z,13.43
2019-04-01T18:56:47.781Z,14.97
2019-04-01T18:59:17.522Z,12.30
2019-04-01T19:01:47.134Z,11.20
2019-04-01T19:04:16.793Z,12.40
2019-04-01T19:06:49.656Z,16.80
2019-04-01T19:09:17.845Z,15.20
2019-04-01T19:11:47.500Z,13.60
2019-04-01T19:14:17.169Z,12.80
2019-04-01T19:16:47.196Z,14.80
2019-04-01T19:19:16.868Z,11.60
2019-04-01T19:21:46.445Z,11.17
2019-04-01T19:24:16.096Z,11.50
2019-04-01T19:26:45.709Z,12.73
2019-04-01T19:29:16.263Z,12.80
2019-04-01T19:31:46.376Z,16.87
2019-04-01T19:34:15.957Z,13.60
2019-04-01T19:36:45.536Z,13.60
2019-04-01T19:39:15.224Z,12.77
2019-04-01T19:41:44.844Z,13.53
2019-04-01T19:44:14.682Z,13.13
2019-04-01T19:46:44.524Z,14.73
2019-04-01T19:49:14.106Z,16.97
2019-04-01T19:51:43.684Z,14.10
2019-04-01T19:54:13.292Z,15.33
2019-04-01T19:56:42.878Z,15.30
2019-04-01T19:59:12.560Z,13.97
2019-04-01T20:01:42.132Z,18.93
2019-04-01T20:04:11.712Z,17.30
2019-04-01T20:06:41.322Z,17.63
2019-04-01T20:09:10.902Z,16.37
2019-04-01T20:11:40.516Z,15.03
2019-04-01T20:14:11.098Z,15.13
2019-04-01T20:16:41.203Z,15.30
2019-04-01T20:19:11.181Z,16.20
2019-04-01T20:21:40.856Z,16.60
2019-04-01T20:24:10.441Z,16.33
2019-04-01T20:26:40.021Z,15.57
2019-04-01T20:29:11.054Z,14.63
2019-04-01T20:31:40.817Z,13.40
2019-04-01T20:34:19.623Z,16.33
2019-04-01T20:36:41.773Z,13.50
2019-04-01T20:39:11.727Z,15.17
2019-04-01T20:41:41.293Z,16.00
2019-04-01T20:44:11.443Z,19.17
2019-04-01T20:46:42.085Z,15.00
2019-04-01T20:49:11.768Z,15.70
2019-04-01T20:51:41.421Z,15.37
2019-04-01T20:54:11.027Z,13.50
2019-04-01T20:56:40.607Z,13.80
2019-04-01T20:59:10.431Z,13.70
2019-04-01T21:01:40.720Z,15.57
2019-04-01T21:04:10.296Z,13.77
2019-04-01T21:06:39.907Z,14.23
2019-04-01T21:09:09.764Z,12.80
2019-04-01T21:11:40.746Z,13.40
2019-04-01T21:14:10.356Z,14.17
2019-04-01T21:16:39.938Z,18.43
2019-04-01T21:19:09.551Z,16.47
2019-04-01T21:21:39.463Z,17.00
2019-04-01T21:24:09.669Z,15.03
2019-04-01T21:26:39.244Z,17.33
2019-04-01T21:29:09.268Z,14.80
2019-04-01T21:31:38.844Z,14.70
2019-04-01T21:34:08.425Z,14.33
2019-04-01T21:36:38.048Z,16.00
2019-04-01T21:39:07.716Z,13.20
2019-04-01T21:41:37.333Z,16.13
2019-04-01T21:44:06.922Z,15.53
2019-04-01T21:46:36.596Z,15.53
2019-04-01T21:49:07.162Z,15.10
2019-04-01T21:51:37.395Z,13.37
2019-04-01T21:54:07.285Z,14.80
2019-04-01T21:56:37.209Z,16.60
2019-04-01T21:59:07.088Z,16.30
2019-04-01T22:01:36.969Z,13.83
2019-04-01T22:04:06.567Z,14.77
2019-04-01T22:06:36.144Z,14.53
2019-04-01T22:09:09.108Z,14.63
2019-04-01T22:11:38.752Z,12.37
2019-04-01T22:14:08.376Z,13.47
2019-04-01T22:16:37.960Z,13.67
2019-04-01T22:19:07.880Z,18.02
2019-04-01T22:21:37.460Z,15.43
2019-04-01T22:24:07.073Z,15.17
2019-04-01T22:26:36.652Z,14.57
2019-04-01T22:29:06.575Z,16.85
2019-04-01T22:31:36.452Z,14.68
2019-04-01T22:34:06.064Z,14.60
2019-04-01T22:36:35.946Z,13.72
2019-04-01T22:39:06.897Z,14.20
2019-04-01T22:41:36.783Z,15.03
2019-04-01T22:44:06.697Z,16.37
2019-04-01T22:46:36.647Z,16.15
2019-04-01T22:49:06.689Z,16.90
2019-04-01T22:51:37.266Z,16.05
2019-04-01T22:54:07.197Z,15.40
2019-04-01T22:56:37.176Z,16.57
2019-04-01T22:59:07.085Z,17.50
2019-04-01T23:01:36.956Z,14.50
2019-04-01T23:04:06.868Z,18.75
2019-04-01T23:06:36.780Z,17.02
2019-04-01T23:09:07.597Z,16.30
2019-04-01T23:11:37.581Z,19.32
2019-04-01T23:14:07.782Z,20.35
2019-04-01T23:16:37.697Z,15.63
2019-04-01T23:19:07.580Z,16.97
2019-04-01T23:21:37.494Z,20.50
2019-04-01T23:24:07.412Z,25.15
2019-04-01T23:26:37.312Z,16.10
2019-04-01T23:29:07.296Z,19.48
2019-04-01T23:31:38.525Z,14.47
2019-04-01T23:34:10.109Z,16.77
2019-04-01T23:36:40.199Z,18.42
2019-04-01T23:39:11.278Z,16.60
2019-04-01T23:41:41.152Z,14.43
2019-04-01T23:44:11.064Z,17.67
2019-04-01T23:46:42.591Z,16.02
2019-04-01T23:49:12.496Z,17.50
2019-04-01T23:51:42.379Z,17.95
2019-04-01T23:54:12.295Z,24.37
2019-04-01T23:56:41.867Z,21.63
2019-04-01T23:59:11.737Z,21.97
